Time;durP1;ratioP1;P1;durP2;ratioP2;P2;SDS_P1;SDS_P2;PMS_P1;PMS_P2;Temp;Humidity;BMP_temperature;BMP_pressure;BME280_temperature;BME280_humidity;BME280_pressure;Samples;Min_cycle;Max_cycle;Signal;HPM_P1;HPM_P2
2023/07/25 00:00:54;;;;;;;4.30;2.33;;;16.70;99.90;;;;;;5055240;28;20874;-84
2023/07/25 00:03:20;;;;;;;4.03;2.47;;;16.70;99.90;;;;;;5035368;28;20585;-83
2023/07/25 00:05:47;;;;;;;5.97;2.70;;;16.60;99.90;;;;;;5049034;28;20465;-83
2023/07/25 00:08:14;;;;;;;4.67;2.57;;;16.60;99.90;;;;;;5055387;28;20968;-83
2023/07/25 00:10:42;;;;;;;3.93;2.90;;;16.60;99.90;;;;;;5054153;28;20981;-82
2023/07/25 00:13:09;;;;;;;2.90;2.40;;;16.60;99.90;;;;;;5054496;28;20485;-83
2023/07/25 00:15:36;;;;;;;4.07;2.10;;;16.60;99.90;;;;;;5074847;22;20520;-80
2023/07/25 00:18:04;;;;;;;5.40;2.87;;;16.60;99.90;;;;;;5052518;28;20458;-79
2023/07/25 00:20:31;;;;;;;4.73;3.20;;;16.60;99.90;;;;;;5054147;28;20464;-80
2023/07/25 00:22:58;;;;;;;5.80;4.03;;;16.60;99.90;;;;;;5054381;28;20960;-81
2023/07/25 00:25:24;;;;;;;5.47;2.90;;;16.60;99.90;;;;;;5053855;28;20527;-81
2023/07/25 00:27:53;;;;;;;3.67;2.70;;;16.60;99.90;;;;;;5054650;28;20459;-80
2023/07/25 00:30:18;;;;;;;3.37;2.57;;;16.70;99.90;;;;;;5053655;28;20539;-80
2023/07/25 00:32:45;;;;;;;5.20;3.00;;;16.70;99.90;;;;;;5053868;28;20480;-81
2023/07/25 00:35:12;;;;;;;5.10;2.70;;;16.70;99.90;;;;;;5054097;28;20248;-78
2023/07/25 00:37:39;;;;;;;8.33;3.13;;;16.70;99.90;;;;;;5054348;28;20545;-81
2023/07/25 00:40:07;;;;;;;4.10;2.70;;;16.70;99.90;;;;;;5053979;28;20854;-82
2023/07/25 00:42:34;;;;;;;3.97;2.60;;;16.70;99.90;;;;;;5056365;28;20462;-81
2023/07/25 00:45:02;;;;;;;4.10;2.30;;;16.70;99.90;;;;;;5057881;28;20459;-79
2023/07/25 00:47:28;;;;;;;4.00;2.97;;;16.80;99.90;;;;;;5059255;28;20488;-79
2023/07/25 00:49:55;;;;;;;5.23;3.37;;;16.80;99.90;;;;;;5060025;28;20458;-79
2023/07/25 00:52:22;;;;;;;3.60;2.60;;;16.70;99.90;;;;;;5059998;28;20535;-79
2023/07/25 00:54:51;;;;;;;6.43;2.43;;;16.80;99.90;;;;;;5060168;28;20485;-80
2023/07/25 00:57:19;;;;;;;5.67;2.90;;;16.80;99.90;;;;;;5058475;28;20567;-79
2023/07/25 00:59:47;;;;;;;4.00;3.03;;;16.80;99.90;;;;;;5057842;28;20457;-81
2023/07/25 01:02:16;;;;;;;7.60;2.90;;;16.70;99.90;;;;;;5056790;28;20435;-81
2023/07/25 01:04:43;;;;;;;5.90;3.03;;;16.80;99.90;;;;;;5057906;28;20830;-78
2023/07/25 01:07:13;;;;;;;4.40;3.50;;;16.80;99.90;;;;;;5056718;28;20496;-82
2023/07/25 01:09:41;;;;;;;5.00;3.17;;;16.80;99.90;;;;;;5057281;28;20459;-81
2023/07/25 01:12:09;;;;;;;4.17;3.03;;;16.80;99.90;;;;;;5056750;28;20456;-81
2023/07/25 01:14:36;;;;;;;4.20;3.60;;;16.90;99.90;;;;;;5056678;28;21019;-80
2023/07/25 01:17:08;;;;;;;5.53;3.73;;;16.80;99.90;;;;;;5055440;28;20515;-80
2023/07/25 01:19:38;;;;;;;6.10;3.50;;;16.80;99.90;;;;;;5056639;28;20458;-80
2023/07/25 01:22:06;;;;;;;7.60;3.07;;;16.80;99.90;;;;;;5057054;28;20456;-81
2023/07/25 01:24:34;;;;;;;4.27;2.87;;;16.80;99.90;;;;;;5056741;28;20479;-79
2023/07/25 01:27:01;;;;;;;4.70;3.07;;;16.80;99.90;;;;;;5055198;28;20556;-80
2023/07/25 01:29:28;;;;;;;4.90;2.90;;;16.80;99.90;;;;;;5056260;28;20456;-79
2023/07/25 01:31:55;;;;;;;7.40;3.60;;;16.70;99.90;;;;;;5056275;28;20457;-79
2023/07/25 01:34:22;;;;;;;6.20;2.93;;;16.80;99.90;;;;;;5056518;28;20489;-78
2023/07/25 01:36:49;;;;;;;4.40;3.20;;;16.70;99.90;;;;;;5055086;28;20480;-80
2023/07/25 01:39:15;;;;;;;6.50;3.30;;;16.70;99.90;;;;;;5056250;28;20456;-79
2023/07/25 01:41:44;;;;;;;5.87;3.00;;;16.70;99.90;;;;;;5055853;28;20453;-80
2023/07/25 01:44:13;;;;;;;5.67;2.77;;;16.70;99.90;;;;;;5054641;28;20448;-80
2023/07/25 01:46:41;;;;;;;4.27;2.57;;;16.70;99.90;;;;;;5053830;28;20477;-80
2023/07/25 01:49:10;;;;;;;4.77;2.67;;;16.70;99.90;;;;;;5056132;28;20513;-80
2023/07/25 01:51:37;;;;;;;3.67;2.80;;;16.70;99.90;;;;;;5054331;28;20452;-79
2023/07/25 01:54:04;;;;;;;3.23;2.30;;;16.60;99.90;;;;;;5054924;28;20487;-80
2023/07/25 01:56:31;;;;;;;9.53;2.90;;;16.60;99.90;;;;;;5055266;28;20465;-79
2023/07/25 01:58:59;;;;;;;3.30;2.10;;;16.60;99.90;;;;;;5055065;28;20458;-80
2023/07/25 02:01:26;;;;;;;5.23;2.60;;;16.60;99.90;;;;;;5055770;28;20498;-79
2023/07/25 02:03:52;;;;;;;3.37;2.23;;;16.60;99.90;;;;;;5054943;28;20456;-80
2023/07/25 02:06:19;;;;;;;6.90;2.50;;;16.60;99.90;;;;;;5054363;28;20459;-80
2023/07/25 02:08:46;;;;;;;6.33;2.40;;;16.50;99.90;;;;;;5055153;28;20911;-80
2023/07/25 02:11:13;;;;;;;6.57;2.30;;;16.50;99.90;;;;;;5054360;28;20454;-80
2023/07/25 02:13:40;;;;;;;8.37;2.27;;;16.50;99.90;;;;;;5054829;28;20486;-80
2023/07/25 02:16:08;;;;;;;4.83;2.13;;;16.50;99.90;;;;;;5053878;28;20492;-79
2023/07/25 02:18:35;;;;;;;4.70;2.30;;;16.40;99.90;;;;;;5055360;28;20451;-79
2023/07/25 02:21:02;;;;;;;4.47;2.60;;;16.40;99.90;;;;;;5054730;28;20793;-80
2023/07/25 02:23:28;;;;;;;4.50;2.43;;;16.40;99.90;;;;;;5054866;28;20535;-80
2023/07/25 02:25:55;;;;;;;5.37;2.20;;;16.40;99.90;;;;;;5054694;28;20840;-80
2023/07/25 02:28:22;;;;;;;3.97;2.77;;;16.30;99.90;;;;;;5054810;28;20514;-80
2023/07/25 02:30:49;;;;;;;5.60;2.80;;;16.30;99.90;;;;;;5054825;28;20458;-80
2023/07/25 02:33:17;;;;;;;6.70;2.23;;;16.20;99.90;;;;;;5054468;28;20448;-80
2023/07/25 02:35:44;;;;;;;4.43;2.30;;;16.20;99.90;;;;;;5053378;28;21070;-81
2023/07/25 02:38:11;;;;;;;3.90;2.20;;;16.20;99.90;;;;;;5054345;28;20461;-81
2023/07/25 02:40:38;;;;;;;3.80;1.93;;;16.20;99.90;;;;;;5054914;28;20448;-80
2023/07/25 02:43:07;;;;;;;3.50;2.03;;;16.10;99.90;;;;;;5053782;28;20990;-79
2023/07/25 02:45:34;;;;;;;8.67;2.40;;;16.10;99.90;;;;;;5052356;28;20859;-80
2023/07/25 02:48:01;;;;;;;4.37;2.13;;;16.00;99.90;;;;;;5054178;28;20804;-79
2023/07/25 02:50:29;;;;;;;8.17;2.27;;;16.00;99.90;;;;;;5053895;28;20447;-82
2023/07/25 02:52:56;;;;;;;2.47;1.90;;;15.90;99.90;;;;;;5054608;28;21197;-80
2023/07/25 02:55:23;;;;;;;4.53;2.50;;;15.90;99.90;;;;;;5053189;28;20487;-80
2023/07/25 02:57:50;;;;;;;5.60;2.27;;;15.80;99.90;;;;;;5053898;28;20456;-81
2023/07/25 03:00:17;;;;;;;7.67;2.47;;;15.80;99.90;;;;;;5054072;28;20452;-80
2023/07/25 03:02:43;;;;;;;4.33;2.60;;;15.80;99.90;;;;;;5054505;28;20456;-79
2023/07/25 03:05:10;;;;;;;6.10;2.40;;;15.80;99.90;;;;;;5054111;28;20452;-80
2023/07/25 03:07:38;;;;;;;5.57;2.70;;;15.70;99.90;;;;;;5053729;28;20474;-79
2023/07/25 03:10:07;;;;;;;3.57;2.20;;;15.70;99.90;;;;;;5054165;28;20459;-80
2023/07/25 03:12:33;;;;;;;5.80;2.70;;;15.70;99.90;;;;;;5054189;28;20454;-80
2023/07/25 03:15:00;;;;;;;6.00;2.70;;;15.60;99.90;;;;;;5054054;28;20479;-80
2023/07/25 03:17:27;;;;;;;3.83;2.20;;;15.60;99.90;;;;;;5052311;28;20493;-81
2023/07/25 03:19:54;;;;;;;3.20;2.27;;;15.60;99.90;;;;;;5054163;28;20460;-81
2023/07/25 03:22:21;;;;;;;3.50;2.30;;;15.50;99.90;;;;;;5053783;28;20460;-79
2023/07/25 03:24:50;;;;;;;6.40;2.90;;;15.50;99.90;;;;;;5053891;28;20457;-79
2023/07/25 03:27:17;;;;;;;5.27;2.93;;;15.50;99.90;;;;;;5054046;28;20476;-78
2023/07/25 03:29:44;;;;;;;3.50;2.70;;;15.50;99.90;;;;;;5054337;28;20476;-79
2023/07/25 03:32:11;;;;;;;4.63;2.40;;;15.40;99.90;;;;;;5053952;28;20459;-79
2023/07/25 03:34:38;;;;;;;3.30;2.33;;;15.40;99.90;;;;;;5054263;28;20460;-80
2023/07/25 03:37:05;;;;;;;4.53;2.33;;;15.40;99.90;;;;;;5053285;28;20563;-79
2023/07/25 03:39:32;;;;;;;4.93;3.20;;;15.30;99.90;;;;;;5054276;28;20847;-81
2023/07/25 03:42:00;;;;;;;8.60;3.17;;;15.30;99.90;;;;;;5055924;28;20462;-81
2023/07/25 03:44:27;;;;;;;7.80;2.50;;;15.30;99.90;;;;;;5041056;28;20475;-81
2023/07/25 03:46:54;;;;;;;7.40;2.87;;;15.30;99.90;;;;;;5036015;28;20478;-81
2023/07/25 03:49:21;;;;;;;13.07;3.13;;;15.30;99.90;;;;;;5054014;28;20457;-81
2023/07/25 03:51:47;;;;;;;5.50;3.00;;;15.30;99.90;;;;;;5049706;28;20500;-81
2023/07/25 03:54:14;;;;;;;3.20;2.80;;;15.30;99.90;;;;;;5055243;28;20460;-80
2023/07/25 03:56:41;;;;;;;6.57;2.90;;;15.20;99.90;;;;;;5052679;28;20492;-80
2023/07/25 03:59:09;;;;;;;7.50;3.17;;;15.20;99.90;;;;;;5053094;28;20454;-80
2023/07/25 04:01:36;;;;;;;4.70;2.93;;;15.20;99.90;;;;;;5052935;28;20451;-79
2023/07/25 04:04:03;;;;;;;5.70;3.47;;;15.20;99.90;;;;;;5052960;28;20462;-79
2023/07/25 04:06:30;;;;;;;4.93;2.90;;;15.20;99.90;;;;;;5051933;28;20479;-81
2023/07/25 04:08:57;;;;;;;4.40;3.30;;;15.20;99.90;;;;;;5052876;28;20454;-80
2023/07/25 04:11:23;;;;;;;6.00;3.30;;;15.20;99.90;;;;;;5052237;28;20456;-81
2023/07/25 04:13:50;;;;;;;4.03;2.97;;;15.30;99.90;;;;;;5052193;28;20467;-81
2023/07/25 04:16:18;;;;;;;7.70;2.90;;;15.30;99.90;;;;;;5052105;28;20494;-79
2023/07/25 04:18:45;;;;;;;6.33;3.20;;;15.30;99.90;;;;;;5054556;28;20451;-82
2023/07/25 04:21:12;;;;;;;6.33;4.00;;;15.30;99.90;;;;;;5057667;28;20452;-81
2023/07/25 04:23:39;;;;;;;7.87;3.13;;;15.30;99.90;;;;;;5057717;28;20459;-82
2023/07/25 04:26:05;;;;;;;6.33;3.67;;;15.40;99.90;;;;;;5056075;28;20467;-82
2023/07/25 04:28:32;;;;;;;7.03;4.40;;;15.40;99.90;;;;;;5056861;28;21100;-82
2023/07/25 04:30:59;;;;;;;5.33;3.63;;;15.40;99.90;;;;;;5059460;28;20461;-83
2023/07/25 04:33:27;;;;;;;4.83;3.40;;;15.50;99.90;;;;;;5060087;28;20458;-80
2023/07/25 04:35:54;;;;;;;5.73;3.70;;;15.50;99.90;;;;;;5059468;28;20483;-81
2023/07/25 04:38:21;;;;;;;6.07;4.60;;;15.50;99.90;;;;;;5059098;28;21009;-82
2023/07/25 04:40:48;;;;;;;4.53;3.47;;;15.50;99.90;;;;;;5059258;28;20537;-80
2023/07/25 04:43:14;;;;;;;3.73;3.43;;;15.50;99.90;;;;;;5059255;28;20446;-81
2023/07/25 04:45:41;;;;;;;5.90;3.27;;;15.50;99.90;;;;;;5058298;28;20497;-81
2023/07/25 04:48:08;;;;;;;5.67;3.53;;;15.50;99.90;;;;;;5060090;28;20537;-81
2023/07/25 04:50:36;;;;;;;5.93;3.70;;;15.50;99.90;;;;;;5059032;28;20483;-81
2023/07/25 04:53:03;;;;;;;5.17;3.30;;;15.50;99.90;;;;;;5059093;28;21131;-80
2023/07/25 04:55:31;;;;;;;4.80;3.70;;;15.50;99.90;;;;;;5059313;28;20469;-80
2023/07/25 04:57:58;;;;;;;4.87;3.30;;;15.50;99.90;;;;;;5058666;28;20521;-80
2023/07/25 05:00:25;;;;;;;10.30;5.03;;;15.50;99.90;;;;;;5058983;28;20455;-80
2023/07/25 05:02:51;;;;;;;7.83;4.80;;;15.50;99.90;;;;;;5058218;28;20463;-80
2023/07/25 05:05:18;;;;;;;3.10;2.80;;;15.50;99.90;;;;;;5059610;28;20535;-80
2023/07/25 05:07:47;;;;;;;6.93;3.57;;;15.50;99.90;;;;;;5036242;28;20467;-80
2023/07/25 05:10:13;;;;;;;4.97;3.70;;;15.50;99.90;;;;;;5040710;28;20460;-81
2023/07/25 05:12:40;;;;;;;8.70;4.03;;;15.50;99.90;;;;;;5052959;28;20454;-79
2023/07/25 05:15:09;;;;;;;6.30;3.93;;;15.50;99.90;;;;;;5053181;28;20546;-81
2023/07/25 05:17:36;;;;;;;5.53;4.23;;;15.50;99.90;;;;;;5048394;28;20493;-80
2023/07/25 05:20:02;;;;;;;6.60;4.50;;;15.50;99.90;;;;;;5011726;28;20451;-81
2023/07/25 05:22:29;;;;;;;6.90;3.87;;;15.50;99.90;;;;;;5054348;28;20550;-80
2023/07/25 05:24:57;;;;;;;6.73;3.83;;;15.50;99.90;;;;;;5054812;28;20455;-80
2023/07/25 05:27:24;;;;;;;6.93;4.30;;;15.60;99.90;;;;;;5053645;28;20558;-80
2023/07/25 05:29:51;;;;;;;12.03;4.10;;;15.60;99.90;;;;;;5050121;28;20466;-80
2023/07/25 05:32:18;;;;;;;10.67;5.10;;;15.70;99.90;;;;;;5054893;28;20546;-80
2023/07/25 05:34:45;;;;;;;6.60;4.57;;;15.60;99.90;;;;;;5054728;28;20451;-81
2023/07/25 05:37:11;;;;;;;4.93;3.13;;;15.70;99.90;;;;;;5053377;28;20501;-80
2023/07/25 05:39:38;;;;;;;6.93;4.20;;;15.70;99.90;;;;;;5054014;28;20491;-80
2023/07/25 05:42:07;;;;;;;8.47;4.40;;;15.70;99.90;;;;;;5053438;28;21143;-80
2023/07/25 05:44:34;;;;;;;4.33;3.63;;;15.80;99.90;;;;;;5054606;28;20557;-80
2023/07/25 05:47:04;;;;;;;8.87;3.50;;;15.80;99.90;;;;;;5053705;28;20475;-81
2023/07/25 05:49:31;;;;;;;9.73;4.03;;;15.80;99.90;;;;;;5054062;28;20471;-80
2023/07/25 05:51:58;;;;;;;11.93;4.50;;;15.80;99.90;;;;;;5053798;28;20455;-80
2023/07/25 05:54:25;;;;;;;9.47;3.60;;;15.80;99.90;;;;;;5054239;28;20463;-81
2023/07/25 05:56:52;;;;;;;7.70;3.27;;;15.80;99.90;;;;;;5053771;28;20584;-80
2023/07/25 05:59:20;;;;;;;5.00;3.70;;;15.80;99.90;;;;;;5055275;28;20538;-80
2023/07/25 06:01:47;;;;;;;8.40;3.90;;;15.80;99.90;;;;;;5054626;28;20817;-80
2023/07/25 06:04:15;;;;;;;7.90;3.33;;;15.90;99.90;;;;;;5053395;28;20879;-80
2023/07/25 06:06:42;;;;;;;6.90;3.87;;;16.00;99.90;;;;;;5049800;28;20472;-80
2023/07/25 06:09:08;;;;;;;6.73;3.47;;;16.00;99.90;;;;;;5052656;28;20459;-80
2023/07/25 06:11:35;;;;;;;6.80;3.50;;;16.10;99.90;;;;;;5052217;28;20463;-80
2023/07/25 06:14:02;;;;;;;3.97;2.80;;;16.20;99.90;;;;;;5053612;28;20821;-80
2023/07/25 06:16:30;;;;;;;5.80;3.30;;;16.30;99.90;;;;;;5104890;22;21438;-80
2023/07/25 06:18:57;;;;;;;6.73;3.30;;;16.40;99.90;;;;;;5036189;28;20528;-80
2023/07/25 06:21:24;;;;;;;4.30;3.33;;;16.50;99.90;;;;;;5030451;28;20984;-79
2023/07/25 06:23:51;;;;;;;8.47;3.43;;;16.50;99.90;;;;;;5035935;28;20454;-80
2023/07/25 06:26:18;;;;;;;8.10;3.20;;;16.60;99.90;;;;;;5033819;28;20472;-80
2023/07/25 06:28:45;;;;;;;5.60;3.53;;;16.70;99.90;;;;;;5031869;28;20492;-80
2023/07/25 06:31:12;;;;;;;6.30;3.13;;;16.70;99.90;;;;;;5036612;28;20469;-80
2023/07/25 06:33:40;;;;;;;3.77;2.53;;;16.60;99.90;;;;;;5035570;28;20460;-80
2023/07/25 06:36:08;;;;;;;7.80;2.97;;;16.70;99.90;;;;;;5029942;28;20575;-81
2023/07/25 06:38:37;;;;;;;5.60;2.70;;;16.70;99.90;;;;;;5033412;28;20569;-80
2023/07/25 06:41:04;;;;;;;5.47;2.20;;;16.70;99.90;;;;;;5032225;28;20456;-80
2023/07/25 06:43:30;;;;;;;7.87;2.97;;;16.60;99.90;;;;;;5036494;28;20959;-81
2023/07/25 06:45:57;;;;;;;4.23;2.50;;;16.60;99.90;;;;;;5033847;28;20453;-80
2023/07/25 06:48:24;;;;;;;6.13;2.67;;;16.60;99.90;;;;;;5038113;28;20459;-80
2023/07/25 06:50:52;;;;;;;5.83;2.33;;;16.60;99.90;;;;;;5045785;28;20496;-82
2023/07/25 06:53:19;;;;;;;4.33;2.20;;;16.50;99.90;;;;;;5037982;28;20548;-80
2023/07/25 06:55:46;;;;;;;7.30;3.03;;;16.50;99.90;;;;;;5037548;28;20449;-81
2023/07/25 06:58:14;;;;;;;6.73;2.57;;;16.50;99.90;;;;;;5030903;28;20524;-81
2023/07/25 07:00:41;;;;;;;4.83;2.67;;;16.50;99.90;;;;;;5034187;28;20476;-81
2023/07/25 07:03:07;;;;;;;3.27;2.37;;;16.50;99.90;;;;;;5032490;28;20550;-81
2023/07/25 07:05:34;;;;;;;6.00;2.57;;;16.50;99.90;;;;;;5035047;28;20471;-79
2023/07/25 07:08:03;;;;;;;3.93;1.90;;;16.60;99.90;;;;;;5034851;28;20476;-81
2023/07/25 07:10:32;;;;;;;5.50;2.63;;;16.70;99.90;;;;;;5036014;28;20451;-80
2023/07/25 07:12:59;;;;;;;7.00;2.00;;;16.70;99.90;;;;;;5034560;28;20453;-81
2023/07/25 07:15:26;;;;;;;5.90;2.87;;;16.70;99.90;;;;;;5034909;28;20461;-81
2023/07/25 07:17:53;;;;;;;5.20;2.43;;;16.70;99.90;;;;;;5034786;28;20519;-82
2023/07/25 07:20:20;;;;;;;6.80;2.47;;;16.70;99.90;;;;;;5035313;28;20456;-81
2023/07/25 07:22:47;;;;;;;8.10;2.63;;;16.80;99.90;;;;;;5035773;28;20559;-82
2023/07/25 07:25:15;;;;;;;7.63;2.50;;;16.90;99.90;;;;;;5035059;28;20522;-82
2023/07/25 07:27:42;;;;;;;6.93;2.40;;;17.00;99.90;;;;;;5036821;28;20505;-81
2023/07/25 07:30:09;;;;;;;5.03;2.40;;;17.10;99.90;;;;;;5037332;28;20542;-81
2023/07/25 07:32:36;;;;;;;8.03;2.77;;;17.20;99.90;;;;;;5036635;28;20554;-82
2023/07/25 07:35:03;;;;;;;7.40;2.60;;;17.30;99.90;;;;;;5035396;28;20459;-81
2023/07/25 07:37:30;;;;;;;8.67;2.50;;;17.40;99.90;;;;;;5033880;28;20505;-82
2023/07/25 07:39:57;;;;;;;6.80;2.60;;;17.50;99.90;;;;;;5033610;28;20452;-80
2023/07/25 07:42:25;;;;;;;3.70;2.20;;;17.60;99.90;;;;;;5035866;28;20456;-81
2023/07/25 07:44:52;;;;;;;6.00;2.10;;;17.70;99.90;;;;;;5034272;28;20467;-80
2023/07/25 07:47:18;;;;;;;6.13;2.03;;;17.80;99.90;;;;;;5034900;28;20504;-82
2023/07/25 07:49:45;;;;;;;4.10;2.40;;;18.00;99.90;;;;;;5034690;28;20469;-81
2023/07/25 07:52:12;;;;;;;8.03;2.70;;;18.10;95.40;;;;;;5036952;28;20470;-81
2023/07/25 07:54:39;;;;;;;6.13;2.40;;;18.20;29.60;;;;;;5037834;28;20473;-81
2023/07/25 07:57:06;;;;;;;4.43;2.00;;;18.30;61.90;;;;;;5040363;28;20531;-82
2023/07/25 07:59:34;;;;;;;7.30;2.40;;;18.40;1.00;;;;;;5043043;28;20453;-81
2023/07/25 08:02:01;;;;;;;6.73;2.07;;;18.40;13.80;;;;;;5040956;28;20834;-81
2023/07/25 08:04:28;;;;;;;5.73;1.80;;;18.50;1.00;;;;;;5041699;28;20551;-79
2023/07/25 08:06:55;;;;;;;3.10;1.83;;;18.60;1.00;;;;;;5039806;28;20845;-81
2023/07/25 08:09:22;;;;;;;4.10;2.10;;;18.60;1.00;;;;;;5041001;28;20495;-81
2023/07/25 08:11:48;;;;;;;4.90;1.83;;;18.60;1.00;;;;;;5040121;28;20530;-81
2023/07/25 08:14:15;;;;;;;5.43;2.10;;;18.60;1.00;;;;;;5040640;28;20908;-81
2023/07/25 08:16:43;;;;;;;3.80;1.80;;;18.60;1.00;;;;;;5038207;28;20494;-80
2023/07/25 08:19:10;;;;;;;3.97;1.70;;;18.70;99.90;;;;;;5039421;28;20472;-81
2023/07/25 08:21:37;;;;;;;4.17;1.70;;;18.60;99.90;;;;;;5041270;28;20540;-81
2023/07/25 08:24:05;;;;;;;6.00;2.20;;;18.60;1.00;;;;;;5037819;28;20505;-81
2023/07/25 08:26:31;;;;;;;3.13;1.67;;;18.50;1.00;;;;;;5038576;28;20486;-81
2023/07/25 08:29:00;;;;;;;2.80;1.70;;;18.50;1.00;;;;;;5035726;28;20485;-82
2023/07/25 08:31:27;;;;;;;3.40;1.77;;;18.50;1.00;;;;;;5036453;28;20501;-80
2023/07/25 08:33:56;;;;;;;5.70;2.17;;;18.50;1.00;;;;;;5037067;28;20511;-81
2023/07/25 08:36:23;;;;;;;3.50;1.90;;;18.50;1.00;;;;;;5031452;28;20487;-81
2023/07/25 08:38:49;;;;;;;3.50;2.10;;;18.50;1.00;;;;;;5030159;28;20950;-81
2023/07/25 08:41:19;;;;;;;4.50;1.77;;;18.40;99.90;;;;;;5036988;28;21037;-79
2023/07/25 08:43:50;;;;;;;6.93;1.80;;;18.50;1.00;;;;;;5033900;28;20452;-79
2023/07/25 08:46:20;;;;;;;3.53;1.80;;;18.50;1.00;;;;;;5037125;28;20559;-77
2023/07/25 08:48:48;;;;;;;2.57;1.70;;;18.50;1.00;;;;;;5031559;28;20462;-80
2023/07/25 08:51:20;;;;;;;3.10;2.20;;;18.50;1.00;;;;;;5038253;28;20456;-80
2023/07/25 08:53:57;;;;;;;2.90;1.50;;;18.40;1.00;;;;;;5037194;28;20470;-81
2023/07/25 08:56:24;;;;;;;6.20;2.43;;;18.50;1.00;;;;;;5037037;28;21060;-81
2023/07/25 08:58:53;;;;;;;7.07;2.23;;;18.50;1.00;;;;;;5034790;28;20552;-80
2023/07/25 09:01:21;;;;;;;4.23;1.43;;;18.50;1.00;;;;;;5039331;28;20487;-80
2023/07/25 09:03:49;;;;;;;6.33;2.37;;;18.60;1.00;;;;;;5036165;28;20474;-81
2023/07/25 09:06:17;;;;;;;4.93;1.83;;;18.70;1.00;;;;;;5036042;28;20479;-81
2023/07/25 09:08:44;;;;;;;3.97;2.33;;;18.70;99.90;;;;;;5032538;28;20457;-80
2023/07/25 09:11:11;;;;;;;4.53;2.10;;;18.90;1.00;;;;;;5042312;28;20471;-80
2023/07/25 09:13:38;;;;;;;4.70;1.70;;;18.90;1.00;;;;;;5038269;28;20967;-81
2023/07/25 09:16:05;;;;;;;5.07;2.20;;;18.90;1.00;;;;;;5034662;28;21004;-81
2023/07/25 09:18:32;;;;;;;2.83;1.67;;;19.00;1.00;;;;;;5037421;28;20476;-81
2023/07/25 09:20:59;;;;;;;4.63;1.80;;;18.90;99.90;;;;;;5037281;28;20457;-81
2023/07/25 09:23:27;;;;;;;4.10;1.70;;;18.90;1.00;;;;;;5033788;28;20456;-80
2023/07/25 09:26:04;;;;;;;7.30;2.10;;;18.90;1.00;;;;;;5035101;28;20548;-80
2023/07/25 09:28:31;;;;;;;2.77;1.50;;;18.90;99.90;;;;;;5035217;28;20436;-81
2023/07/25 09:30:58;;;;;;;4.73;2.27;;;19.00;1.00;;;;;;5037651;28;20882;-78
2023/07/25 09:33:27;;;;;;;4.90;2.00;;;19.10;1.00;;;;;;5036042;28;20468;-81
2023/07/25 09:35:54;;;;;;;7.70;2.30;;;19.10;99.90;;;;;;5030208;28;20492;-79
2023/07/25 09:38:21;;;;;;;5.93;1.77;;;19.30;1.00;;;;;;5034643;28;20488;-81
2023/07/25 09:40:50;;;;;;;4.03;1.73;;;19.50;99.90;;;;;;5033719;28;20457;-81
2023/07/25 09:43:23;;;;;;;3.70;2.23;;;19.50;99.90;;;;;;5035093;28;20464;-81
2023/07/25 09:45:51;;;;;;;4.50;1.67;;;19.50;99.90;;;;;;5038254;28;20459;-79
2023/07/25 09:48:18;;;;;;;3.27;1.97;;;19.40;1.00;;;;;;5039512;28;20449;-81
2023/07/25 09:50:46;;;;;;;4.73;2.27;;;19.40;1.00;;;;;;5032161;28;20544;-82
2023/07/25 09:53:13;;;;;;;7.17;2.13;;;19.30;1.00;;;;;;5033597;28;20476;-82
2023/07/25 09:55:41;;;;;;;4.07;1.87;;;19.30;99.90;;;;;;5040777;28;20543;-81
2023/07/25 09:58:09;;;;;;;7.40;2.10;;;19.30;1.00;;;;;;5038100;28;20503;-80
2023/07/25 10:00:36;;;;;;;7.20;1.90;;;19.30;1.00;;;;;;5045712;28;20456;-80
2023/07/25 10:03:03;;;;;;;7.57;2.00;;;19.20;99.90;;;;;;5047525;28;20456;-80
2023/07/25 10:05:30;;;;;;;3.10;1.80;;;19.30;1.00;;;;;;5042135;28;20498;-80
2023/07/25 10:07:58;;;;;;;5.60;2.27;;;19.30;1.00;;;;;;5043567;28;20469;-80
2023/07/25 10:10:25;;;;;;;4.60;2.20;;;19.50;1.00;;;;;;5046743;28;20454;-81
2023/07/25 10:12:53;;;;;;;4.93;2.53;;;19.70;99.90;;;;;;5035997;28;20457;-79
2023/07/25 10:15:22;;;;;;;9.53;2.37;;;19.80;99.90;;;;;;5036046;28;20449;-82
2023/07/25 10:17:50;;;;;;;3.63;2.17;;;19.90;99.90;;;;;;5034267;28;20581;-81
2023/07/25 10:20:22;;;;;;;3.87;2.00;;;20.10;99.90;;;;;;5036361;28;20454;-81
2023/07/25 10:22:50;;;;;;;5.47;2.10;;;20.20;1.00;;;;;;5036638;28;20462;-81
2023/07/25 10:25:21;;;;;;;3.50;1.80;;;20.10;99.90;;;;;;5036557;28;20457;-80
2023/07/25 10:27:48;;;;;;;5.03;1.97;;;20.00;4.90;;;;;;5036968;28;20556;-81
2023/07/25 10:30:26;;;;;;;5.20;1.70;;;19.70;99.90;;;;;;5035756;28;20532;-81
2023/07/25 10:32:56;;;;;;;3.17;1.60;;;19.60;2.10;;;;;;5036799;28;20456;-82
2023/07/25 10:35:46;;;;;;;5.93;2.20;;;19.50;99.90;;;;;;5034826;28;20945;-81
2023/07/25 10:38:15;;;;;;;4.47;2.10;;;19.20;1.00;;;;;;5031728;28;20491;-81
2023/07/25 10:40:54;;;;;;;5.00;2.20;;;19.10;28.00;;;;;;5025800;28;20564;-82
2023/07/25 10:43:21;;;;;;;4.37;1.90;;;19.00;99.90;;;;;;5035188;28;20465;-82
2023/07/25 10:45:51;;;;;;;4.43;1.90;;;18.90;99.90;;;;;;5037312;28;20464;-83
2023/07/25 10:48:32;;;;;;;6.60;2.10;;;18.90;99.90;;;;;;5036533;28;20949;-82
2023/07/25 10:51:00;;;;;;;5.73;2.13;;;18.60;98.40;;;;;;5036187;28;20544;-82
2023/07/25 10:53:27;;;;;;;5.40;2.50;;;18.60;1.00;;;;;;5037304;28;20437;-83
2023/07/25 10:56:19;;;;;;;4.13;2.03;;;18.60;25.50;;;;;;5034841;28;20467;-84
2023/07/25 10:59:03;;;;;;;9.03;2.17;;;18.50;1.00;;;;;;5037872;28;20929;-83
2023/07/25 11:01:39;;;;;;;5.73;1.80;;;18.50;59.70;;;;;;5035404;28;20459;-80
2023/07/25 11:04:29;;;;;;;6.23;1.83;;;18.40;99.90;;;;;;5036997;28;20889;-83
2023/07/25 11:06:58;;;;;;;3.00;1.93;;;18.40;99.90;;;;;;5033537;28;20475;-82
2023/07/25 11:09:26;;;;;;;4.10;2.07;;;18.40;99.90;;;;;;5036934;28;20475;-82
2023/07/25 11:11:54;;;;;;;3.13;1.97;;;18.40;99.90;;;;;;5037816;28;20453;-82
2023/07/25 11:14:22;;;;;;;5.23;2.00;;;18.40;1.00;;;;;;5035774;28;20464;-82
2023/07/25 11:16:53;;;;;;;5.10;1.90;;;18.50;1.00;;;;;;5035431;28;20510;-81
2023/07/25 11:19:26;;;;;;;4.63;2.23;;;18.50;99.90;;;;;;5034088;28;20490;-82
2023/07/25 11:21:53;;;;;;;8.20;2.50;;;18.60;99.90;;;;;;5035696;28;20480;-82
2023/07/25 11:24:22;;;;;;;4.60;2.67;;;19.00;1.00;;;;;;5039708;28;20491;-82
2023/07/25 11:26:49;;;;;;;3.93;1.80;;;19.80;1.00;;;;;;5035194;28;20499;-79
2023/07/25 11:29:17;;;;;;;3.70;1.97;;;20.40;86.20;;;;;;5035179;28;20456;-82
2023/07/25 11:31:50;;;;;;;4.33;1.83;;;20.40;1.00;;;;;;5035524;28;20461;-83
2023/07/25 11:34:19;;;;;;;3.77;2.10;;;20.20;99.90;;;;;;5036211;28;20924;-80
2023/07/25 11:36:46;;;;;;;2.60;1.83;;;19.70;1.00;;;;;;5036176;28;20479;-82
2023/07/25 11:39:14;;;;;;;5.63;2.03;;;19.50;11.80;;;;;;5033469;28;20975;-81
2023/07/25 11:41:44;;;;;;;5.03;1.90;;;19.30;1.00;;;;;;5038515;28;20523;-82
2023/07/25 11:44:12;;;;;;;6.00;2.20;;;19.00;1.00;;;;;;5038220;28;20539;-82
2023/07/25 11:46:42;;;;;;;5.47;2.00;;;18.80;99.90;;;;;;5029730;28;20479;-83
2023/07/25 11:49:13;;;;;;;7.23;2.17;;;18.60;91.80;;;;;;5033549;28;20473;-84
2023/07/25 11:51:40;;;;;;;4.17;2.00;;;18.50;99.90;;;;;;5033587;28;20468;-81
2023/07/25 11:54:09;;;;;;;4.57;1.90;;;18.30;99.90;;;;;;5034083;28;20989;-81
2023/07/25 11:56:36;;;;;;;4.13;2.20;;;18.20;1.00;;;;;;5032575;28;20468;-82
2023/07/25 11:59:03;;;;;;;6.73;2.47;;;18.10;1.00;;;;;;5038655;28;20483;-81
2023/07/25 12:01:33;;;;;;;4.63;1.70;;;18.10;22.50;;;;;;5035284;28;20453;-83
2023/07/25 12:04:01;;;;;;;3.83;2.13;;;18.10;77.20;;;;;;5039665;28;20461;-83
2023/07/25 12:06:30;;;;;;;9.20;2.73;;;18.10;55.20;;;;;;5041601;28;20482;-81
2023/07/25 12:08:57;;;;;;;5.13;2.23;;;18.10;62.00;;;;;;5038487;28;20464;-81
2023/07/25 12:11:24;;;;;;;4.30;2.10;;;18.20;93.50;;;;;;5035830;28;20902;-79
2023/07/25 12:13:52;;;;;;;4.13;2.33;;;18.30;91.40;;;;;;5035625;28;20555;-80
2023/07/25 12:19:02;;;;;;;4.50;2.27;;;18.50;91.70;;;;;;5053194;28;20484;-82
2023/07/25 12:21:31;;;;;;;3.50;2.10;;;18.50;9.00;;;;;;5057300;28;20455;-81
2023/07/25 12:24:00;;;;;;;4.67;2.20;;;18.70;21.30;;;;;;5062862;28;20844;-83
2023/07/25 12:26:27;;;;;;;7.53;2.10;;;18.80;1.00;;;;;;5061370;28;20467;-82
2023/07/25 12:28:55;;;;;;;5.00;2.20;;;18.90;1.00;;;;;;5043530;28;20505;-82
2023/07/25 12:31:22;;;;;;;5.50;2.00;;;19.20;99.90;;;;;;5042097;28;20452;-81
2023/07/25 12:33:51;;;;;;;4.97;2.00;;;20.00;1.00;;;;;;5039496;28;20536;-84
2023/07/25 12:36:19;;;;;;;7.57;2.50;;;20.70;1.00;;;;;;5030697;28;20455;-82
2023/07/25 12:38:48;;;;;;;4.93;2.97;;;21.30;99.90;;;;;;5044123;28;20495;-80
2023/07/25 12:41:15;;;;;;;4.10;1.80;;;21.70;1.00;;;;;;5044792;28;20460;-82
2023/07/25 12:43:42;;;;;;;4.73;1.73;;;21.70;1.00;;;;;;5025585;28;20536;-82
2023/07/25 12:46:09;;;;;;;4.57;1.93;;;21.70;1.00;;;;;;5031834;28;20467;-82
2023/07/25 12:48:36;;;;;;;2.87;1.60;;;21.60;99.90;;;;;;5041947;28;20461;-82
2023/07/25 12:51:03;;;;;;;2.40;1.10;;;21.60;99.90;;;;;;5036220;28;20555;-83
2023/07/25 12:53:30;;;;;;;3.33;1.10;;;21.60;99.90;;;;;;5042809;28;20552;-82